| time (UTC) | temp F | wind direction | speed MPH | gust MPH | rain 1hr in | rain 24hr in | rain mn in | humidity % | barometer mb |
| 20260507111522 | 55 | 112 | 0.0 | 0.0 | 0.00 | 0.00 | 0.00 | 84 | 1013.7 |
| 20260507110017 | 56 | 89 | 0.0 | 2.0 | 0.00 | 0.00 | 0.00 | 84 | 1013.8 |
| 20260507104514 | 55 | 79 | 1.0 | 3.0 | 0.00 | 0.00 | 0.00 | 85 | 1013.8 |
| 20260507103015 | 55 | 92 | 0.0 | 0.0 | 0.00 | 0.00 | 0.00 | 84 | 1014.0 |
| 20260507101509 | 56 | 92 | 0.0 | 0.0 | 0.00 | 0.00 | 0.00 | 83 | 1014.0 |
| 20260507100011 | 57 | 77 | 0.0 | 2.0 | 0.00 | 0.00 | 0.00 | 82 | 1014.1 |
| 20260507094505 | 56 | 77 | 0.0 | 2.0 | 0.00 | 0.00 | 0.00 | 83 | 1014.1 |
| 20260507093005 | 56 | 91 | 0.0 | 1.0 | 0.00 | 0.00 | 0.00 | 82 | 1014.3 |
| 20260507091609 | 56 | 91 | 0.0 | 1.0 | 0.00 | 0.00 | 0.00 | 82 | 1014.6 |
| 20260507090058 | 57 | 91 | 0.0 | 2.0 | 0.00 | 0.00 | 0.00 | 81 | 1014.6 |
| 20260507084558 | 57 | 108 | 0.0 | 1.0 | 0.00 | 0.00 | 0.00 | 83 | 1014.8 |
| 20260507083059 | 57 | 108 | 0.0 | 1.0 | 0.00 | 0.00 | 0.00 | 82 | 1014.9 |
| 20260507081553 | 57 | 108 | 0.0 | 0.0 | 0.00 | 0.00 | 0.00 | 82 | 1014.9 |
| 20260507080114 | 57 | 108 | 0.0 | 1.0 | 0.00 | 0.00 | 0.00 | 82 | 1015.0 |
| 20260507074556 | 58 | 238 | 0.0 | 0.0 | 0.00 | 0.00 | 0.00 | 81 | 1015.0 |
| 20260507073057 | 58 | 238 | 0.0 | 0.0 | 0.00 | 0.00 | 0.00 | 82 | 1015.0 |
| 20260507071559 | 58 | 238 | 0.0 | 0.0 | 0.00 | 0.00 | 0.00 | 80 | 1015.0 |
| 20260507070043 | 59 | 238 | 0.0 | 0.0 | 0.00 | 0.00 | 0.00 | 79 | 1015.0 |
| 20260507064546 | 59 | 238 | 0.0 | 0.0 | 0.00 | 0.00 | 0.00 | 80 | 1015.2 |
| 20260507063042 | 58 | 238 | 0.0 | 0.0 | 0.00 | 0.00 | 0.00 | 80 | 1015.3 |
| 20260507061542 | 59 | 238 | 0.0 | 0.0 | 0.00 | 0.00 | 0.00 | 78 | 1015.2 |
| 20260507060046 | 59 | 238 | 0.0 | 0.0 | 0.00 | 0.00 | 0.00 | 76 | 1015.2 |
| 20260507054549 | 60 | 238 | 0.0 | 0.0 | 0.00 | 0.00 | 0.00 | 76 | 1015.3 |
| 20260507053045 | 61 | 238 | 0.0 | 0.0 | 0.00 | 0.00 | 0.00 | 75 | 1015.2 |
| 20260507051540 | 61 | 238 | 0.0 | 1.0 | 0.00 | 0.00 | 0.00 | 74 | 1015.1 |
| 20260507050039 | 62 | 240 | 0.0 | 1.0 | 0.00 | 0.00 | 0.00 | 73 | 1015.0 |
| 20260507044538 | 62 | 233 | 0.0 | 1.0 | 0.00 | 0.00 | 0.00 | 71 | 1015.0 |
| 20260507043039 | 63 | 239 | 0.0 | 2.0 | 0.00 | 0.00 | 0.00 | 70 | 1015.0 |
| 20260507041537 | 63 | 260 | 0.0 | 1.0 | 0.00 | 0.00 | 0.00 | 69 | 1014.9 |
| 20260507040043 | 64 | 275 | 0.0 | 3.0 | 0.00 | 0.00 | 0.00 | 67 | 1014.8 |
| 20260507034535 | 65 | 248 | 0.0 | 4.0 | 0.00 | 0.00 | 0.00 | 64 | 1014.6 |
| 20260507033038 | 65 | 285 | 0.0 | 3.0 | 0.00 | 0.00 | 0.00 | 63 | 1014.5 |
| 20260507031535 | 65 | 248 | 0.0 | 3.0 | 0.00 | 0.00 | 0.00 | 65 | 1014.3 |
| 20260507030035 | 66 | 212 | 2.0 | 5.0 | 0.00 | 0.00 | 0.00 | 65 | 1014.1 |
| 20260507024535 | 67 | 150 | 0.0 | 5.0 | 0.00 | 0.00 | 0.00 | 62 | 1014.0 |
| 20260507023033 | 68 | 148 | 1.0 | 6.0 | 0.00 | 0.00 | 0.00 | 60 | 1013.8 |
| 20260507021532 | 69 | 187 | 2.0 | 7.0 | 0.00 | 0.00 | 0.00 | 59 | 1013.7 |
| 20260507020034 | 69 | 234 | 3.0 | 7.0 | 0.00 | 0.00 | 0.00 | 58 | 1013.5 |
| 20260507014531 | 70 | 219 | 3.0 | 9.0 | 0.00 | 0.00 | 0.00 | 58 | 1013.5 |
| 20260507013036 | 70 | 217 | 5.0 | 9.0 | 0.00 | 0.00 | 0.00 | 58 | 1013.4 |
| 20260507011538 | 70 | 189 | 2.0 | 9.0 | 0.00 | 0.00 | 0.00 | 57 | 1013.2 |
| 20260507010030 | 71 | 236 | 3.0 | 10.0 | 0.00 | 0.00 | 0.00 | 55 | 1013.1 |
| 20260507004528 | 72 | 269 | 3.0 | 10.0 | 0.00 | 0.00 | 0.00 | 53 | 1013.0 |
| 20260507003026 | 72 | 245 | 4.0 | 11.0 | 0.00 | 0.00 | 0.00 | 53 | 1013.0 |
| 20260507001529 | 73 | 266 | 3.0 | 8.0 | 0.00 | 0.00 | 0.00 | 51 | 1013.0 |
| 20260507000025 | 74 | 236 | 3.0 | 8.0 | 0.00 | 0.00 | 0.00 | 51 | 1013.0 |
| 20260506234530 | 74 | 223 | 1.0 | 9.0 | 0.00 | 0.00 | 0.00 | 52 | 1012.9 |
| 20260506233023 | 73 | 242 | 3.0 | 11.0 | 0.00 | 0.00 | 0.00 | 51 | 1013.0 |
| 20260506231524 | 74 | 130 | 4.0 | 10.0 | 0.00 | 0.00 | 0.00 | 48 | 1013.0 |
| 20260506230020 | 74 | 219 | 4.0 | 11.0 | 0.00 | 0.00 | 0.00 | 47 | 1013.2 |
| 20260506224526 | 74 | 196 | 5.0 | 12.0 | 0.00 | 0.00 | 0.00 | 47 | 1013.2 |
| 20260506223017 | 75 | 269 | 2.0 | 10.0 | 0.00 | 0.00 | 0.00 | 47 | 1013.3 |
| 20260506221515 | 74 | 131 | 4.0 | 13.0 | 0.00 | 0.00 | 0.00 | 48 | 1013.5 |
| 20260506220012 | 75 | 150 | 2.0 | 11.0 | 0.00 | 0.00 | 0.00 | 48 | 1013.7 |
| 20260506214510 | 75 | 227 | 3.0 | 12.0 | 0.00 | 0.00 | 0.00 | 49 | 1013.9 |
| 20260506213038 | 75 | 227 | 2.0 | 7.0 | 0.00 | 0.00 | 0.00 | 49 | 1014.0 |
| 20260506211505 | 74 | 236 | 1.0 | 7.0 | 0.00 | 0.00 | 0.00 | 50 | 1014.2 |
| 20260506210002 | 74 | 232 | 2.0 | 7.0 | 0.00 | 0.00 | 0.00 | 52 | 1014.3 |
| 20260506204502 | 73 | 228 | 4.0 | 10.0 | 0.00 | 0.00 | 0.00 | 51 | 1014.4 |
| 20260506203143 | 74 | 283 | 6.0 | 11.0 | 0.00 | 0.00 | 0.00 | 49 | 1014.6 |
| 20260506201555 | 75 | 147 | 2.0 | 7.0 | 0.00 | 0.00 | 0.00 | 45 | 1014.7 |
| 20260506200053 | 72 | 215 | 2.0 | 8.0 | 0.00 | 0.00 | 0.00 | 48 | 1015.0 |
| 20260506194549 | 72 | 74 | 3.0 | 7.0 | 0.00 | 0.00 | 0.00 | 48 | 1015.2 |
| 20260506193047 | 72 | 233 | 1.0 | 7.0 | 0.00 | 0.00 | 0.00 | 49 | 1015.3 |
| 20260506191550 | 70 | 261 | 1.0 | 6.0 | 0.00 | 0.00 | 0.00 | 52 | 1015.4 |
| 20260506190049 | 71 | 60 | 1.0 | 6.0 | 0.00 | 0.00 | 0.00 | 50 | 1015.7 |
| 20260506184551 | 70 | 127 | 1.0 | 7.0 | 0.00 | 0.00 | 0.00 | 51 | 1015.8 |
| 20260506183041 | 68 | 221 | 2.0 | 8.0 | 0.00 | 0.00 | 0.00 | 54 | 1016.1 |
| 20260506181538 | 70 | 254 | 2.0 | 5.0 | 0.00 | 0.00 | 0.00 | 52 | 1016.1 |
| 20260506180037 | 68 | 222 | 1.0 | 7.0 | 0.00 | 0.00 | 0.00 | 54 | 1016.2 |
| 20260506174533 | 68 | 228 | 2.0 | 6.0 | 0.00 | 0.00 | 0.00 | 54 | 1016.2 |
| 20260506173039 | 67 | 174 | 1.0 | 5.0 | 0.00 | 0.00 | 0.00 | 54 | 1016.2 |
| 20260506171528 | 67 | 120 | 1.0 | 5.0 | 0.00 | 0.00 | 0.00 | 55 | 1016.3 |
| 20260506170024 | 65 | 162 | 2.0 | 5.0 | 0.00 | 0.00 | 0.00 | 59 | 1016.2 |
| 20260506164523 | 64 | 303 | 1.0 | 5.0 | 0.00 | 0.00 | 0.00 | 61 | 1016.3 |
| 20260506163039 | 64 | 237 | 2.0 | 4.0 | 0.00 | 0.00 | 0.00 | 61 | 1016.3 |
| 20260506161517 | 64 | 127 | 0.0 | 3.0 | 0.00 | 0.00 | 0.00 | 64 | 1016.3 |
| 20260506160016 | 63 | 120 | 1.0 | 4.0 | 0.00 | 0.00 | 0.00 | 64 | 1016.4 |
| 20260506154527 | 62 | 108 | 0.0 | 4.0 | 0.00 | 0.00 | 0.00 | 67 | 1016.4 |
| 20260506153011 | 62 | 120 | 0.0 | 2.0 | 0.00 | 0.00 | 0.00 | 68 | 1016.5 |
| 20260506151511 | 59 | 87 | 0.0 | 4.0 | 0.00 | 0.00 | 0.00 | 73 | 1016.5 |
| 20260506150006 | 58 | 82 | 2.0 | 4.0 | 0.00 | 0.00 | 0.00 | 76 | 1016.5 |
| 20260506144604 | 57 | 96 | 2.0 | 5.0 | 0.00 | 0.00 | 0.00 | 80 | 1016.5 |
| 20260506143058 | 55 | 105 | 2.0 | 6.0 | 0.00 | 0.00 | 0.00 | 82 | 1016.4 |
| 20260506141555 | 54 | 90 | 3.0 | 6.0 | 0.00 | 0.00 | 0.00 | 84 | 1016.4 |
| 20260506140056 | 54 | 96 | 3.0 | 5.0 | 0.00 | 0.00 | 0.00 | 86 | 1016.4 |
| 20260506134554 | 52 | 113 | 0.0 | 5.0 | 0.00 | 0.00 | 0.00 | 89 | 1016.2 |
| 20260506133053 | 52 | 86 | 0.0 | 2.0 | 0.00 | 0.00 | 0.00 | 90 | 1016.1 |
| 20260506131549 | 51 | 89 | 0.0 | 2.0 | 0.00 | 0.00 | 0.00 | 90 | 1015.8 |
| 20260506130048 | 51 | 88 | 1.0 | 2.0 | 0.00 | 0.00 | 0.00 | 89 | 1015.7 |
| 20260506124547 | 52 | 96 | 1.0 | 4.0 | 0.00 | 0.01 | 0.00 | 89 | 1015.7 |
| 20260506123048 | 52 | 90 | 2.0 | 4.0 | 0.00 | 0.01 | 0.00 | 90 | 1015.5 |
| 20260506121552 | 52 | 82 | 0.0 | 2.0 | 0.00 | 0.01 | 0.00 | 90 | 1015.3 |
| 20260506120042 | 52 | 82 | 0.0 | 2.0 | 0.00 | 0.01 | 0.00 | 89 | 1015.3 |
| 20260506114541 | 52 | 75 | 0.0 | 2.0 | 0.00 | 0.02 | 0.00 | 89 | 1015.3 |
| 20260506113039 | 53 | 86 | 0.0 | 2.0 | 0.00 | 0.02 | 0.00 | 89 | 1015.2 |